sensor_id;sensor_type;location;lat;lon;timestamp;P1;durP1;ratioP1;P2;durP2;ratioP2
49800;SDS011;35698;50.232;30.540;2023-04-02T00:07:37;7.08;;;5.76;;
49800;SDS011;35698;50.232;30.540;2023-04-02T00:08:41;8.08;;;6.04;;
49800;SDS011;35698;50.232;30.540;2023-04-02T00:10:58;7.26;;;6.03;;
49800;SDS011;35698;50.232;30.540;2023-04-02T00:12:12;7.46;;;6.14;;
49800;SDS011;35698;50.232;30.540;2023-04-02T00:14:35;6.97;;;6.10;;
49800;SDS011;35698;50.232;30.540;2023-04-02T00:17:22;6.89;;;5.77;;
49800;SDS011;35698;50.232;30.540;2023-04-02T00:18:26;6.64;;;5.62;;
49800;SDS011;35698;50.232;30.540;2023-04-02T00:19:40;7.24;;;6.13;;
49800;SDS011;35698;50.232;30.540;2023-04-02T00:22:27;7.32;;;5.95;;
49800;SDS011;35698;50.232;30.540;2023-04-02T00:23:34;8.29;;;6.10;;
49800;SDS011;35698;50.232;30.540;2023-04-02T00:24:39;7.30;;;5.94;;
49800;SDS011;35698;50.232;30.540;2023-04-02T00:25:51;9.42;;;6.33;;
49800;SDS011;35698;50.232;30.540;2023-04-02T00:26:54;10.59;;;6.17;;
49800;SDS011;35698;50.232;30.540;2023-04-02T00:28:05;7.49;;;5.98;;
49800;SDS011;35698;50.232;30.540;2023-04-02T00:29:12;9.03;;;6.47;;
49800;SDS011;35698;50.232;30.540;2023-04-02T00:30:16;8.29;;;6.98;;
49800;SDS011;35698;50.232;30.540;2023-04-02T00:31:20;7.51;;;6.05;;
49800;SDS011;35698;50.232;30.540;2023-04-02T00:32:31;8.12;;;6.46;;
49800;SDS011;35698;50.232;30.540;2023-04-02T00:33:37;8.19;;;6.29;;
49800;SDS011;35698;50.232;30.540;2023-04-02T00:34:40;7.19;;;6.35;;
49800;SDS011;35698;50.232;30.540;2023-04-02T00:35:43;8.63;;;6.56;;
49800;SDS011;35698;50.232;30.540;2023-04-02T00:36:48;6.22;;;5.61;;
49800;SDS011;35698;50.232;30.540;2023-04-02T00:38:00;6.31;;;5.63;;
49800;SDS011;35698;50.232;30.540;2023-04-02T00:39:06;7.28;;;6.09;;
49800;SDS011;35698;50.232;30.540;2023-04-02T00:41:31;7.44;;;6.22;;
49800;SDS011;35698;50.232;30.540;2023-04-02T00:42:36;8.09;;;5.65;;
49800;SDS011;35698;50.232;30.540;2023-04-02T00:43:42;7.78;;;5.63;;
49800;SDS011;35698;50.232;30.540;2023-04-02T00:44:54;9.33;;;6.67;;
49800;SDS011;35698;50.232;30.540;2023-04-02T00:46:01;7.76;;;6.15;;
49800;SDS011;35698;50.232;30.540;2023-04-02T00:47:19;9.37;;;6.86;;
49800;SDS011;35698;50.232;30.540;2023-04-02T00:48:36;7.80;;;6.88;;
49800;SDS011;35698;50.232;30.540;2023-04-02T00:50:03;9.02;;;7.23;;
49800;SDS011;35698;50.232;30.540;2023-04-02T00:51:23;7.91;;;6.05;;
49800;SDS011;35698;50.232;30.540;2023-04-02T00:52:47;7.74;;;6.63;;
49800;SDS011;35698;50.232;30.540;2023-04-02T00:54:03;6.85;;;6.14;;
49800;SDS011;35698;50.232;30.540;2023-04-02T00:55:12;6.61;;;5.84;;
49800;SDS011;35698;50.232;30.540;2023-04-02T00:56:28;8.18;;;5.93;;
49800;SDS011;35698;50.232;30.540;2023-04-02T00:57:44;7.09;;;6.35;;
49800;SDS011;35698;50.232;30.540;2023-04-02T00:58:50;10.02;;;6.37;;
49800;SDS011;35698;50.232;30.540;2023-04-02T01:01:32;7.57;;;6.44;;
49800;SDS011;35698;50.232;30.540;2023-04-02T01:06:00;8.34;;;6.06;;
49800;SDS011;35698;50.232;30.540;2023-04-02T01:12:09;8.22;;;5.96;;
49800;SDS011;35698;50.232;30.540;2023-04-02T01:13:27;9.35;;;6.33;;
49800;SDS011;35698;50.232;30.540;2023-04-02T01:19:20;7.14;;;5.86;;
49800;SDS011;35698;50.232;30.540;2023-04-02T01:20:46;8.13;;;5.87;;
49800;SDS011;35698;50.232;30.540;2023-04-02T01:22:26;7.18;;;5.97;;
49800;SDS011;35698;50.232;30.540;2023-04-02T01:23:38;6.72;;;5.83;;
49800;SDS011;35698;50.232;30.540;2023-04-02T01:24:57;7.54;;;5.39;;
49800;SDS011;35698;50.232;30.540;2023-04-02T01:27:33;9.23;;;6.62;;
49800;SDS011;35698;50.232;30.540;2023-04-02T01:28:59;8.13;;;6.43;;
49800;SDS011;35698;50.232;30.540;2023-04-02T01:30:12;8.93;;;6.34;;
49800;SDS011;35698;50.232;30.540;2023-04-02T01:31:16;7.46;;;6.04;;
49800;SDS011;35698;50.232;30.540;2023-04-02T01:32:28;6.79;;;6.07;;
49800;SDS011;35698;50.232;30.540;2023-04-02T01:33:33;7.28;;;5.73;;
49800;SDS011;35698;50.232;30.540;2023-04-02T01:34:45;6.74;;;6.05;;
49800;SDS011;35698;50.232;30.540;2023-04-02T01:35:52;6.21;;;5.11;;
49800;SDS011;35698;50.232;30.540;2023-04-02T01:40:12;6.44;;;5.67;;
49800;SDS011;35698;50.232;30.540;2023-04-02T01:43:02;8.72;;;6.07;;
49800;SDS011;35698;50.232;30.540;2023-04-02T01:44:25;7.44;;;5.97;;
49800;SDS011;35698;50.232;30.540;2023-04-02T01:45:51;7.96;;;6.18;;
49800;SDS011;35698;50.232;30.540;2023-04-02T01:47:02;9.09;;;6.22;;
49800;SDS011;35698;50.232;30.540;2023-04-02T01:48:13;7.49;;;6.23;;
49800;SDS011;35698;50.232;30.540;2023-04-02T01:49:36;9.03;;;5.93;;
49800;SDS011;35698;50.232;30.540;2023-04-02T01:50:39;8.69;;;6.36;;
49800;SDS011;35698;50.232;30.540;2023-04-02T01:51:53;10.36;;;6.07;;
49800;SDS011;35698;50.232;30.540;2023-04-02T01:53:06;7.85;;;6.11;;
49800;SDS011;35698;50.232;30.540;2023-04-02T01:54:40;7.94;;;5.87;;
49800;SDS011;35698;50.232;30.540;2023-04-02T01:57:08;8.93;;;6.64;;
49800;SDS011;35698;50.232;30.540;2023-04-02T01:58:12;8.89;;;5.81;;
49800;SDS011;35698;50.232;30.540;2023-04-02T01:59:36;9.48;;;7.64;;
49800;SDS011;35698;50.232;30.540;2023-04-02T02:01:06;8.79;;;6.26;;
49800;SDS011;35698;50.232;30.540;2023-04-02T02:02:12;7.51;;;6.12;;
49800;SDS011;35698;50.232;30.540;2023-04-02T02:03:34;9.39;;;6.60;;
49800;SDS011;35698;50.232;30.540;2023-04-02T02:04:46;7.04;;;6.25;;
49800;SDS011;35698;50.232;30.540;2023-04-02T02:05:50;7.35;;;6.42;;
49800;SDS011;35698;50.232;30.540;2023-04-02T02:09:43;8.00;;;6.61;;
49800;SDS011;35698;50.232;30.540;2023-04-02T02:12:36;8.31;;;6.54;;
49800;SDS011;35698;50.232;30.540;2023-04-02T02:13:44;10.94;;;6.67;;
49800;SDS011;35698;50.232;30.540;2023-04-02T02:14:57;6.71;;;5.78;;
49800;SDS011;35698;50.232;30.540;2023-04-02T02:16:00;8.14;;;6.09;;
49800;SDS011;35698;50.232;30.540;2023-04-02T02:17:31;8.42;;;6.78;;
49800;SDS011;35698;50.232;30.540;2023-04-02T02:18:35;7.97;;;6.32;;
49800;SDS011;35698;50.232;30.540;2023-04-02T02:19:46;7.74;;;6.20;;
49800;SDS011;35698;50.232;30.540;2023-04-02T02:20:59;7.44;;;6.23;;
49800;SDS011;35698;50.232;30.540;2023-04-02T02:22:08;9.55;;;6.91;;
49800;SDS011;35698;50.232;30.540;2023-04-02T02:23:16;7.63;;;6.32;;
49800;SDS011;35698;50.232;30.540;2023-04-02T02:24:39;8.10;;;6.78;;
49800;SDS011;35698;50.232;30.540;2023-04-02T02:25:51;8.89;;;6.15;;
49800;SDS011;35698;50.232;30.540;2023-04-02T02:27:02;7.53;;;6.33;;
49800;SDS011;35698;50.232;30.540;2023-04-02T02:28:22;8.01;;;6.37;;
49800;SDS011;35698;50.232;30.540;2023-04-02T02:29:35;8.41;;;5.88;;
49800;SDS011;35698;50.232;30.540;2023-04-02T02:30:59;8.02;;;6.32;;
49800;SDS011;35698;50.232;30.540;2023-04-02T02:32:21;7.61;;;6.24;;
49800;SDS011;35698;50.232;30.540;2023-04-02T02:33:45;7.28;;;5.52;;
49800;SDS011;35698;50.232;30.540;2023-04-02T02:35:10;8.44;;;6.33;;
49800;SDS011;35698;50.232;30.540;2023-04-02T02:37:35;8.89;;;6.57;;
49800;SDS011;35698;50.232;30.540;2023-04-02T02:39:01;8.89;;;6.24;;
49800;SDS011;35698;50.232;30.540;2023-04-02T02:40:23;8.74;;;6.17;;
49800;SDS011;35698;50.232;30.540;2023-04-02T02:41:49;7.21;;;5.88;;
49800;SDS011;35698;50.232;30.540;2023-04-02T02:43:01;8.82;;;6.51;;
49800;SDS011;35698;50.232;30.540;2023-04-02T02:45:38;8.44;;;6.55;;
49800;SDS011;35698;50.232;30.540;2023-04-02T02:47:05;8.03;;;6.12;;
49800;SDS011;35698;50.232;30.540;2023-04-02T03:07:52;8.36;;;5.54;;
49800;SDS011;35698;50.232;30.540;2023-04-02T03:09:12;7.41;;;5.96;;
49800;SDS011;35698;50.232;30.540;2023-04-02T03:12:07;6.75;;;5.67;;
49800;SDS011;35698;50.232;30.540;2023-04-02T03:13:29;9.21;;;6.34;;
49800;SDS011;35698;50.232;30.540;2023-04-02T03:14:44;9.78;;;6.41;;
49800;SDS011;35698;50.232;30.540;2023-04-02T03:16:17;7.96;;;6.19;;
49800;SDS011;35698;50.232;30.540;2023-04-02T03:20:35;7.96;;;5.78;;
49800;SDS011;35698;50.232;30.540;2023-04-02T03:23:16;8.78;;;5.96;;
49800;SDS011;35698;50.232;30.540;2023-04-02T03:25:48;9.06;;;5.95;;
49800;SDS011;35698;50.232;30.540;2023-04-02T03:27:17;9.02;;;5.79;;
49800;SDS011;35698;50.232;30.540;2023-04-02T03:28:33;8.78;;;6.39;;
49800;SDS011;35698;50.232;30.540;2023-04-02T03:29:43;8.59;;;6.27;;
49800;SDS011;35698;50.232;30.540;2023-04-02T03:32:49;7.12;;;6.17;;
49800;SDS011;35698;50.232;30.540;2023-04-02T03:34:00;8.60;;;6.11;;
49800;SDS011;35698;50.232;30.540;2023-04-02T03:37:00;8.15;;;5.77;;
49800;SDS011;35698;50.232;30.540;2023-04-02T03:40:00;9.80;;;6.74;;
49800;SDS011;35698;50.232;30.540;2023-04-02T03:41:10;9.08;;;6.21;;
49800;SDS011;35698;50.232;30.540;2023-04-02T03:42:29;8.83;;;6.08;;
49800;SDS011;35698;50.232;30.540;2023-04-02T03:43:45;7.84;;;5.96;;
49800;SDS011;35698;50.232;30.540;2023-04-02T03:44:57;9.01;;;6.01;;
49800;SDS011;35698;50.232;30.540;2023-04-02T03:47:42;6.59;;;5.69;;
49800;SDS011;35698;50.232;30.540;2023-04-02T03:48:54;6.33;;;5.63;;
49800;SDS011;35698;50.232;30.540;2023-04-02T03:52:02;8.78;;;6.39;;
49800;SDS011;35698;50.232;30.540;2023-04-02T03:53:15;8.58;;;6.26;;
49800;SDS011;35698;50.232;30.540;2023-04-02T03:54:37;8.06;;;6.35;;
49800;SDS011;35698;50.232;30.540;2023-04-02T03:55:59;9.18;;;5.97;;
49800;SDS011;35698;50.232;30.540;2023-04-02T03:57:04;10.04;;;6.54;;
49800;SDS011;35698;50.232;30.540;2023-04-02T03:58:22;8.45;;;6.94;;
49800;SDS011;35698;50.232;30.540;2023-04-02T03:59:43;8.07;;;5.78;;
49800;SDS011;35698;50.232;30.540;2023-04-02T04:04:06;8.52;;;5.67;;
49800;SDS011;35698;50.232;30.540;2023-04-02T04:06:40;8.14;;;5.93;;
49800;SDS011;35698;50.232;30.540;2023-04-02T04:09:15;7.67;;;5.82;;
49800;SDS011;35698;50.232;30.540;2023-04-02T04:10:42;8.51;;;5.88;;
49800;SDS011;35698;50.232;30.540;2023-04-02T04:12:11;7.87;;;5.44;;
49800;SDS011;35698;50.232;30.540;2023-04-02T04:13:24;8.34;;;5.39;;
49800;SDS011;35698;50.232;30.540;2023-04-02T04:14:31;9.01;;;6.17;;
49800;SDS011;35698;50.232;30.540;2023-04-02T04:19:02;8.44;;;5.87;;
49800;SDS011;35698;50.232;30.540;2023-04-02T04:21:46;8.37;;;5.56;;
49800;SDS011;35698;50.232;30.540;2023-04-02T04:23:07;8.65;;;6.37;;
49800;SDS011;35698;50.232;30.540;2023-04-02T04:24:17;7.53;;;5.57;;
49800;SDS011;35698;50.232;30.540;2023-04-02T04:25:45;7.31;;;5.41;;
49800;SDS011;35698;50.232;30.540;2023-04-02T04:27:12;7.43;;;5.58;;
49800;SDS011;35698;50.232;30.540;2023-04-02T04:29:34;8.94;;;5.87;;
49800;SDS011;35698;50.232;30.540;2023-04-02T04:32:34;8.00;;;5.97;;
49800;SDS011;35698;50.232;30.540;2023-04-02T04:33:59;7.53;;;5.49;;
49800;SDS011;35698;50.232;30.540;2023-04-02T04:35:19;7.75;;;6.38;;
49800;SDS011;35698;50.232;30.540;2023-04-02T04:36:30;7.77;;;5.52;;
49800;SDS011;35698;50.232;30.540;2023-04-02T04:37:54;10.37;;;5.39;;
49800;SDS011;35698;50.232;30.540;2023-04-02T04:39:12;7.06;;;5.39;;
49800;SDS011;35698;50.232;30.540;2023-04-02T04:40:19;7.56;;;5.89;;
49800;SDS011;35698;50.232;30.540;2023-04-02T04:41:46;7.50;;;6.00;;
49800;SDS011;35698;50.232;30.540;2023-04-02T04:42:52;6.79;;;5.86;;
49800;SDS011;35698;50.232;30.540;2023-04-02T04:44:20;7.99;;;5.85;;
49800;SDS011;35698;50.232;30.540;2023-04-02T04:45:32;7.58;;;6.15;;
49800;SDS011;35698;50.232;30.540;2023-04-02T04:48:36;8.42;;;6.22;;
49800;SDS011;35698;50.232;30.540;2023-04-02T04:49:46;7.61;;;6.14;;
49800;SDS011;35698;50.232;30.540;2023-04-02T04:54:23;9.81;;;6.28;;
49800;SDS011;35698;50.232;30.540;2023-04-02T04:55:37;8.83;;;6.34;;
49800;SDS011;35698;50.232;30.540;2023-04-02T04:56:53;7.57;;;5.96;;
49800;SDS011;35698;50.232;30.540;2023-04-02T05:01:28;8.44;;;5.91;;
49800;SDS011;35698;50.232;30.540;2023-04-02T05:04:30;8.16;;;6.16;;
49800;SDS011;35698;50.232;30.540;2023-04-02T05:05:39;9.22;;;6.21;;
49800;SDS011;35698;50.232;30.540;2023-04-02T05:07:04;8.62;;;6.13;;
49800;SDS011;35698;50.232;30.540;2023-04-02T05:08:21;10.33;;;6.03;;
49800;SDS011;35698;50.232;30.540;2023-04-02T05:09:41;8.29;;;6.55;;
49800;SDS011;35698;50.232;30.540;2023-04-02T05:10:55;9.74;;;6.12;;
49800;SDS011;35698;50.232;30.540;2023-04-02T05:12:03;10.21;;;6.49;;
49800;SDS011;35698;50.232;30.540;2023-04-02T05:13:33;8.07;;;5.87;;
49800;SDS011;35698;50.232;30.540;2023-04-02T05:14:56;7.55;;;5.95;;
49800;SDS011;35698;50.232;30.540;2023-04-02T05:16:33;7.79;;;5.96;;
49800;SDS011;35698;50.232;30.540;2023-04-02T05:19:18;9.14;;;6.09;;
49800;SDS011;35698;50.232;30.540;2023-04-02T05:23:38;8.23;;;5.64;;
49800;SDS011;35698;50.232;30.540;2023-04-02T05:26:29;7.22;;;5.37;;
49800;SDS011;35698;50.232;30.540;2023-04-02T05:28:12;7.91;;;5.62;;
49800;SDS011;35698;50.232;30.540;2023-04-02T05:29:18;8.18;;;6.07;;
49800;SDS011;35698;50.232;30.540;2023-04-02T05:30:35;7.11;;;5.74;;
49800;SDS011;35698;50.232;30.540;2023-04-02T05:31:54;7.54;;;5.89;;
49800;SDS011;35698;50.232;30.540;2023-04-02T05:34:27;6.26;;;5.38;;
49800;SDS011;35698;50.232;30.540;2023-04-02T05:37:15;6.88;;;5.74;;
49800;SDS011;35698;50.232;30.540;2023-04-02T05:38:23;7.14;;;5.63;;
49800;SDS011;35698;50.232;30.540;2023-04-02T05:42:29;8.99;;;5.78;;
49800;SDS011;35698;50.232;30.540;2023-04-02T05:45:29;7.96;;;5.93;;
49800;SDS011;35698;50.232;30.540;2023-04-02T05:46:48;7.67;;;5.60;;
49800;SDS011;35698;50.232;30.540;2023-04-02T05:48:16;9.64;;;5.59;;
49800;SDS011;35698;50.232;30.540;2023-04-02T05:51:03;7.19;;;5.33;;
49800;SDS011;35698;50.232;30.540;2023-04-02T05:52:14;6.31;;;4.93;;
49800;SDS011;35698;50.232;30.540;2023-04-02T05:53:44;7.73;;;5.83;;
49800;SDS011;35698;50.232;30.540;2023-04-02T05:55:01;7.36;;;5.64;;
49800;SDS011;35698;50.232;30.540;2023-04-02T05:56:22;7.16;;;5.59;;
49800;SDS011;35698;50.232;30.540;2023-04-02T05:57:53;7.93;;;5.95;;
49800;SDS011;35698;50.232;30.540;2023-04-02T06:07:45;8.20;;;6.23;;
49800;SDS011;35698;50.232;30.540;2023-04-02T06:09:10;6.96;;;5.44;;
49800;SDS011;35698;50.232;30.540;2023-04-02T06:10:23;7.29;;;6.20;;
49800;SDS011;35698;50.232;30.540;2023-04-02T06:11:36;6.54;;;5.42;;
49800;SDS011;35698;50.232;30.540;2023-04-02T06:13:05;6.49;;;5.18;;
49800;SDS011;35698;50.232;30.540;2023-04-02T06:14:13;6.75;;;5.01;;
49800;SDS011;35698;50.232;30.540;2023-04-02T06:15:19;7.67;;;5.52;;
49800;SDS011;35698;50.232;30.540;2023-04-02T06:16:43;5.91;;;5.12;;
49800;SDS011;35698;50.232;30.540;2023-04-02T06:19:23;6.24;;;5.42;;
49800;SDS011;35698;50.232;30.540;2023-04-02T06:20:28;5.61;;;4.96;;
49800;SDS011;35698;50.232;30.540;2023-04-02T06:21:31;6.87;;;5.28;;
49800;SDS011;35698;50.232;30.540;2023-04-02T06:22:56;6.53;;;4.84;;
49800;SDS011;35698;50.232;30.540;2023-04-02T06:24:10;6.46;;;5.59;;
49800;SDS011;35698;50.232;30.540;2023-04-02T06:25:24;9.61;;;5.14;;
49800;SDS011;35698;50.232;30.540;2023-04-02T06:26:38;8.28;;;5.62;;
49800;SDS011;35698;50.232;30.540;2023-04-02T06:27:48;7.25;;;5.21;;
49800;SDS011;35698;50.232;30.540;2023-04-02T06:29:00;5.99;;;4.89;;
49800;SDS011;35698;50.232;30.540;2023-04-02T06:30:27;7.32;;;5.54;;
49800;SDS011;35698;50.232;30.540;2023-04-02T06:31:43;7.34;;;5.53;;
49800;SDS011;35698;50.232;30.540;2023-04-02T06:32:59;8.12;;;5.56;;
49800;SDS011;35698;50.232;30.540;2023-04-02T06:34:03;7.23;;;5.66;;
49800;SDS011;35698;50.232;30.540;2023-04-02T06:35:11;6.36;;;5.34;;
49800;SDS011;35698;50.232;30.540;2023-04-02T06:36:17;6.41;;;5.68;;
49800;SDS011;35698;50.232;30.540;2023-04-02T06:38:46;6.28;;;4.80;;
49800;SDS011;35698;50.232;30.540;2023-04-02T06:39:52;7.58;;;5.24;;
49800;SDS011;35698;50.232;30.540;2023-04-02T06:45:22;7.45;;;6.05;;
49800;SDS011;35698;50.232;30.540;2023-04-02T06:46:30;10.56;;;8.53;;
49800;SDS011;35698;50.232;30.540;2023-04-02T06:47:54;11.72;;;9.62;;
49800;SDS011;35698;50.232;30.540;2023-04-02T06:52:26;6.00;;;4.89;;
49800;SDS011;35698;50.232;30.540;2023-04-02T06:53:42;5.52;;;4.72;;
49800;SDS011;35698;50.232;30.540;2023-04-02T06:55:16;5.13;;;4.63;;
49800;SDS011;35698;50.232;30.540;2023-04-02T06:57:49;6.11;;;4.46;;
49800;SDS011;35698;50.232;30.540;2023-04-02T06:59:12;5.80;;;5.23;;
49800;SDS011;35698;50.232;30.540;2023-04-02T07:00:35;5.45;;;4.35;;
49800;SDS011;35698;50.232;30.540;2023-04-02T07:01:45;6.99;;;4.49;;
49800;SDS011;35698;50.232;30.540;2023-04-02T07:02:59;5.64;;;4.97;;
49800;SDS011;35698;50.232;30.540;2023-04-02T07:04:04;9.70;;;6.93;;
49800;SDS011;35698;50.232;30.540;2023-04-02T07:05:26;8.17;;;6.42;;
49800;SDS011;35698;50.232;30.540;2023-04-02T07:06:37;12.62;;;8.48;;
49800;SDS011;35698;50.232;30.540;2023-04-02T07:07:41;12.07;;;8.74;;
49800;SDS011;35698;50.232;30.540;2023-04-02T07:09:03;7.06;;;5.64;;
49800;SDS011;35698;50.232;30.540;2023-04-02T07:10:18;6.50;;;4.74;;
49800;SDS011;35698;50.232;30.540;2023-04-02T07:11:21;6.27;;;4.27;;
49800;SDS011;35698;50.232;30.540;2023-04-02T07:12:25;5.16;;;4.44;;
49800;SDS011;35698;50.232;30.540;2023-04-02T07:13:47;4.58;;;3.94;;
49800;SDS011;35698;50.232;30.540;2023-04-02T07:14:59;5.21;;;4.29;;
49800;SDS011;35698;50.232;30.540;2023-04-02T07:16:03;5.06;;;4.34;;
49800;SDS011;35698;50.232;30.540;2023-04-02T07:17:15;4.86;;;3.84;;
49800;SDS011;35698;50.232;30.540;2023-04-02T07:19:47;5.77;;;3.94;;
49800;SDS011;35698;50.232;30.540;2023-04-02T07:21:09;3.99;;;3.68;;
49800;SDS011;35698;50.232;30.540;2023-04-02T07:22:20;4.95;;;4.33;;
49800;SDS011;35698;50.232;30.540;2023-04-02T07:23:24;5.67;;;3.84;;
49800;SDS011;35698;50.232;30.540;2023-04-02T07:24:46;4.37;;;3.44;;
49800;SDS011;35698;50.232;30.540;2023-04-02T07:26:10;4.67;;;4.07;;
49800;SDS011;35698;50.232;30.540;2023-04-02T07:27:20;3.75;;;3.44;;
49800;SDS011;35698;50.232;30.540;2023-04-02T07:28:31;5.78;;;4.14;;
49800;SDS011;35698;50.232;30.540;2023-04-02T07:29:35;4.52;;;4.09;;
49800;SDS011;35698;50.232;30.540;2023-04-02T07:30:57;5.58;;;3.76;;
49800;SDS011;35698;50.232;30.540;2023-04-02T07:33:49;6.49;;;4.14;;
49800;SDS011;35698;50.232;30.540;2023-04-02T07:34:53;7.57;;;4.22;;
49800;SDS011;35698;50.232;30.540;2023-04-02T07:36:15;3.91;;;3.52;;
49800;SDS011;35698;50.232;30.540;2023-04-02T07:37:39;4.54;;;3.74;;
49800;SDS011;35698;50.232;30.540;2023-04-02T07:38:50;5.58;;;4.15;;
49800;SDS011;35698;50.232;30.540;2023-04-02T07:39:53;6.01;;;3.63;;
49800;SDS011;35698;50.232;30.540;2023-04-02T07:41:15;6.33;;;4.37;;
49800;SDS011;35698;50.232;30.540;2023-04-02T07:42:20;5.88;;;4.32;;
49800;SDS011;35698;50.232;30.540;2023-04-02T07:43:41;4.08;;;3.74;;
49800;SDS011;35698;50.232;30.540;2023-04-02T07:44:53;4.46;;;3.93;;
49800;SDS011;35698;50.232;30.540;2023-04-02T07:45:56;5.44;;;3.93;;
49800;SDS011;35698;50.232;30.540;2023-04-02T07:47:09;4.78;;;4.07;;
49800;SDS011;35698;50.232;30.540;2023-04-02T07:48:20;5.06;;;4.00;;
49800;SDS011;35698;50.232;30.540;2023-04-02T07:49:23;5.12;;;4.48;;
49800;SDS011;35698;50.232;30.540;2023-04-02T07:50:26;5.71;;;4.51;;
49800;SDS011;35698;50.232;30.540;2023-04-02T07:51:42;8.14;;;6.59;;
49800;SDS011;35698;50.232;30.540;2023-04-02T07:52:46;6.80;;;5.68;;
49800;SDS011;35698;50.232;30.540;2023-04-02T07:53:49;6.41;;;5.56;;
49800;SDS011;35698;50.232;30.540;2023-04-02T07:55:01;5.31;;;4.43;;
49800;SDS011;35698;50.232;30.540;2023-04-02T07:56:04;4.49;;;3.75;;
49800;SDS011;35698;50.232;30.540;2023-04-02T07:57:08;5.45;;;4.10;;
49800;SDS011;35698;50.232;30.540;2023-04-02T07:58:19;5.46;;;3.97;;
49800;SDS011;35698;50.232;30.540;2023-04-02T07:59:22;3.86;;;3.56;;
49800;SDS011;35698;50.232;30.540;2023-04-02T08:00:26;4.03;;;3.62;;
49800;SDS011;35698;50.232;30.540;2023-04-02T08:01:33;3.99;;;3.48;;
49800;SDS011;35698;50.232;30.540;2023-04-02T08:02:54;6.12;;;3.95;;
49800;SDS011;35698;50.232;30.540;2023-04-02T08:04:08;3.94;;;3.60;;
49800;SDS011;35698;50.232;30.540;2023-04-02T08:05:13;5.11;;;4.00;;
49800;SDS011;35698;50.232;30.540;2023-04-02T08:06:24;3.91;;;3.51;;
49800;SDS011;35698;50.232;30.540;2023-04-02T08:07:27;4.22;;;3.86;;
49800;SDS011;35698;50.232;30.540;2023-04-02T08:08:48;4.23;;;3.69;;
49800;SDS011;35698;50.232;30.540;2023-04-02T08:09:52;5.02;;;3.76;;
49800;SDS011;35698;50.232;30.540;2023-04-02T08:11:03;4.72;;;4.27;;
49800;SDS011;35698;50.232;30.540;2023-04-02T08:12:07;4.63;;;3.67;;
49800;SDS011;35698;50.232;30.540;2023-04-02T08:13:31;5.53;;;4.20;;
49800;SDS011;35698;50.232;30.540;2023-04-02T08:15:58;3.83;;;3.54;;
49800;SDS011;35698;50.232;30.540;2023-04-02T08:17:10;4.91;;;4.20;;
49800;SDS011;35698;50.232;30.540;2023-04-02T08:18:13;4.33;;;3.92;;
49800;SDS011;35698;50.232;30.540;2023-04-02T08:19:35;4.26;;;3.89;;
49800;SDS011;35698;50.232;30.540;2023-04-02T08:20:40;4.33;;;3.77;;
49800;SDS011;35698;50.232;30.540;2023-04-02T08:21:44;4.06;;;3.71;;
49800;SDS011;35698;50.232;30.540;2023-04-02T08:48:51;16.03;;;7.72;;
49800;SDS011;35698;50.232;30.540;2023-04-02T08:52:46;8.66;;;5.38;;
49800;SDS011;35698;50.232;30.540;2023-04-02T08:58:24;3.78;;;3.48;;
49800;SDS011;35698;50.232;30.540;2023-04-02T08:59:43;4.39;;;3.99;;
49800;SDS011;35698;50.232;30.540;2023-04-02T09:00:55;4.81;;;3.26;;
49800;SDS011;35698;50.232;30.540;2023-04-02T09:02:08;4.18;;;3.28;;
49800;SDS011;35698;50.232;30.540;2023-04-02T09:03:18;3.54;;;3.24;;
49800;SDS011;35698;50.232;30.540;2023-04-02T09:04:34;4.31;;;3.91;;
49800;SDS011;35698;50.232;30.540;2023-04-02T09:05:38;5.13;;;3.81;;
49800;SDS011;35698;50.232;30.540;2023-04-02T09:06:44;3.46;;;3.16;;
49800;SDS011;35698;50.232;30.540;2023-04-02T09:08:14;3.32;;;3.07;;
49800;SDS011;35698;50.232;30.540;2023-04-02T09:09:31;3.66;;;3.34;;
49800;SDS011;35698;50.232;30.540;2023-04-02T09:10:38;3.63;;;3.25;;
49800;SDS011;35698;50.232;30.540;2023-04-02T09:15:49;3.93;;;3.41;;
49800;SDS011;35698;50.232;30.540;2023-04-02T09:17:21;3.89;;;3.47;;
49800;SDS011;35698;50.232;30.540;2023-04-02T09:18:44;3.41;;;3.13;;
49800;SDS011;35698;50.232;30.540;2023-04-02T09:22:34;3.58;;;3.28;;
49800;SDS011;35698;50.232;30.540;2023-04-02T09:25:11;3.85;;;3.49;;
49800;SDS011;35698;50.232;30.540;2023-04-02T09:26:21;3.72;;;3.33;;
49800;SDS011;35698;50.232;30.540;2023-04-02T09:27:46;3.25;;;3.01;;
49800;SDS011;35698;50.232;30.540;2023-04-02T09:32:26;4.28;;;3.85;;
49800;SDS011;35698;50.232;30.540;2023-04-02T09:33:41;3.79;;;3.49;;
49800;SDS011;35698;50.232;30.540;2023-04-02T09:37:39;4.14;;;3.76;;
49800;SDS011;35698;50.232;30.540;2023-04-02T09:39:03;4.45;;;4.05;;
49800;SDS011;35698;50.232;30.540;2023-04-02T09:41:28;5.16;;;4.10;;
49800;SDS011;35698;50.232;30.540;2023-04-02T09:42:47;5.81;;;4.34;;
49800;SDS011;35698;50.232;30.540;2023-04-02T09:43:51;4.17;;;3.81;;
49800;SDS011;35698;50.232;30.540;2023-04-02T09:45:32;4.51;;;4.03;;
49800;SDS011;35698;50.232;30.540;2023-04-02T09:46:52;4.91;;;4.46;;
49800;SDS011;35698;50.232;30.540;2023-04-02T09:47:59;4.59;;;4.17;;
49800;SDS011;35698;50.232;30.540;2023-04-02T09:50:35;5.24;;;4.68;;
49800;SDS011;35698;50.232;30.540;2023-04-02T09:51:39;4.81;;;4.34;;
49800;SDS011;35698;50.232;30.540;2023-04-02T09:54:36;5.63;;;5.10;;
49800;SDS011;35698;50.232;30.540;2023-04-02T09:55:40;5.15;;;4.58;;
49800;SDS011;35698;50.232;30.540;2023-04-02T09:57:00;5.26;;;4.76;;
49800;SDS011;35698;50.232;30.540;2023-04-02T09:58:19;5.38;;;4.73;;
49800;SDS011;35698;50.232;30.540;2023-04-02T09:59:30;5.51;;;4.63;;
49800;SDS011;35698;50.232;30.540;2023-04-02T10:00:34;5.66;;;4.92;;
49800;SDS011;35698;50.232;30.540;2023-04-02T10:03:20;5.69;;;5.15;;
49800;SDS011;35698;50.232;30.540;2023-04-02T10:05:01;5.79;;;5.04;;
49800;SDS011;35698;50.232;30.540;2023-04-02T10:06:24;6.68;;;5.08;;
49800;SDS011;35698;50.232;30.540;2023-04-02T10:07:38;5.32;;;4.81;;
49800;SDS011;35698;50.232;30.540;2023-04-02T10:08:51;5.45;;;4.54;;
49800;SDS011;35698;50.232;30.540;2023-04-02T10:10:16;5.43;;;4.59;;
49800;SDS011;35698;50.232;30.540;2023-04-02T10:11:39;5.82;;;4.64;;
49800;SDS011;35698;50.232;30.540;2023-04-02T10:12:52;6.97;;;5.83;;
49800;SDS011;35698;50.232;30.540;2023-04-02T10:14:23;5.74;;;4.53;;
49800;SDS011;35698;50.232;30.540;2023-04-02T10:18:38;6.53;;;5.81;;
49800;SDS011;35698;50.232;30.540;2023-04-02T10:21:22;7.23;;;5.06;;
49800;SDS011;35698;50.232;30.540;2023-04-02T10:22:44;5.86;;;4.42;;
49800;SDS011;35698;50.232;30.540;2023-04-02T10:25:30;7.07;;;5.03;;
49800;SDS011;35698;50.232;30.540;2023-04-02T10:28:29;5.20;;;4.70;;
49800;SDS011;35698;50.232;30.540;2023-04-02T10:33:17;5.33;;;4.48;;
49800;SDS011;35698;50.232;30.540;2023-04-02T10:34:55;4.93;;;4.50;;
49800;SDS011;35698;50.232;30.540;2023-04-02T10:36:20;5.43;;;4.29;;
49800;SDS011;35698;50.232;30.540;2023-04-02T10:40:26;4.67;;;4.23;;
49800;SDS011;35698;50.232;30.540;2023-04-02T10:53:21;5.19;;;3.70;;
49800;SDS011;35698;50.232;30.540;2023-04-02T10:54:46;6.23;;;3.95;;
49800;SDS011;35698;50.232;30.540;2023-04-02T10:55:52;5.29;;;4.07;;
49800;SDS011;35698;50.232;30.540;2023-04-02T10:58:55;4.70;;;4.09;;
49800;SDS011;35698;50.232;30.540;2023-04-02T11:00:20;4.39;;;3.69;;
49800;SDS011;35698;50.232;30.540;2023-04-02T11:01:41;4.20;;;3.68;;
49800;SDS011;35698;50.232;30.540;2023-04-02T11:04:24;5.17;;;4.72;;
49800;SDS011;35698;50.232;30.540;2023-04-02T11:09:48;3.23;;;2.93;;
49800;SDS011;35698;50.232;30.540;2023-04-02T11:11:03;3.05;;;2.80;;